Deadhorse Airport Deadhorse US
ICAO: PASC
IATA:
Category: Medium
Scheduled Services:

Elevation: 65 ft
TransAlt. 18000 ft.

Airport Communications:
ATIS:118.4
ANCHORAGE CNTR:134.4
CTAF:123.6
RDO:122.2
UNICOM:123

PASC Zoom In..

Runways:

(A) RW 05 length 6500 ft width 150 ft
ILS 109.30 / hdg 52

(B) RW 06 length 6500 ft width 100 ft
---- / hdg 52

(C) RW 23 length 6500 ft width 150 ft
---- / hdg 232

(D) RW 24 length 6500 ft width 100 ft
---- / hdg 232

Location; PASC
Day. 26 / Time. 13.53 Zulu
* Altimeter: 29.94
* Temperature: -04° c. -24.8°f.
* Wind from: 050° Speed 17 kn.
Dewpoint: -05° c.
Visibility: 10 Statute Miles.
Clouds: Overcast 500 ft.

PASC 261353Z 05017KT 10SM OVC005 M04/M05 A2994 RMK AO2 SLP139 I1001 T10391050


Wind From 050°
Speed 17 kn.

 
 
jpsmedia.com for Web Design SOUNDCLOUD worldairports.se 2018   terms of use